createdAt,value
2017-12-17T00:00:22.512Z,994.18
2017-12-17T00:01:22.487Z,994.14
2017-12-17T00:02:22.470Z,994.00
2017-12-17T00:03:22.413Z,993.92
2017-12-17T00:04:22.415Z,993.95
2017-12-17T00:05:22.365Z,993.91
2017-12-17T00:06:22.359Z,993.94
2017-12-17T00:07:22.332Z,993.86
2017-12-17T00:08:22.306Z,993.82
2017-12-17T00:09:22.292Z,993.89
2017-12-17T00:10:22.269Z,993.79
2017-12-17T00:11:22.230Z,993.76
2017-12-17T00:12:22.212Z,993.72
2017-12-17T00:13:22.185Z,993.74
2017-12-17T00:14:22.173Z,993.59
2017-12-17T00:15:22.127Z,993.46
2017-12-17T00:16:22.130Z,993.36
2017-12-17T00:17:22.086Z,993.41
2017-12-17T00:18:22.075Z,993.34
2017-12-17T00:19:22.032Z,993.35
2017-12-17T00:20:22.013Z,993.40
2017-12-17T00:21:21.998Z,993.30
2017-12-17T00:22:21.971Z,993.29
2017-12-17T00:23:21.944Z,993.21
2017-12-17T00:24:21.902Z,993.14
2017-12-17T00:25:21.897Z,993.03
2017-12-17T00:26:21.875Z,992.98
2017-12-17T00:27:21.851Z,993.26
2017-12-17T00:28:21.822Z,993.12
2017-12-17T00:29:21.786Z,993.14
2017-12-17T00:30:21.774Z,993.26
2017-12-17T00:31:21.744Z,993.26
2017-12-17T00:32:21.729Z,993.31
2017-12-17T00:33:21.697Z,993.33
2017-12-17T00:34:21.690Z,993.37
2017-12-17T00:35:21.660Z,993.22
2017-12-17T00:36:21.625Z,993.27
2017-12-17T00:37:21.602Z,993.25
2017-12-17T00:38:21.576Z,993.29
2017-12-17T00:39:21.554Z,993.46
2017-12-17T00:40:21.532Z,993.68
2017-12-17T00:41:21.504Z,993.99
2017-12-17T00:42:21.504Z,994.00
2017-12-17T00:43:21.467Z,994.31
2017-12-17T00:44:21.439Z,994.61
2017-12-17T00:45:21.410Z,994.59
2017-12-17T00:46:21.385Z,994.76
2017-12-17T00:47:21.370Z,994.90
2017-12-17T00:48:21.346Z,994.87
2017-12-17T00:49:21.303Z,994.91
2017-12-17T00:50:21.307Z,994.83
2017-12-17T00:51:21.258Z,994.75
2017-12-17T00:52:21.232Z,994.79
2017-12-17T00:53:21.200Z,994.89
2017-12-17T00:54:21.184Z,995.07
2017-12-17T00:55:21.171Z,995.24
2017-12-17T00:56:21.137Z,995.30
2017-12-17T00:57:21.138Z,995.34
2017-12-17T00:58:21.102Z,995.43
2017-12-17T00:59:21.079Z,995.51
2017-12-17T01:00:21.045Z,995.52
2017-12-17T01:01:21.017Z,995.59
2017-12-17T01:02:21.012Z,995.62
2017-12-17T01:03:20.978Z,995.58
2017-12-17T01:04:20.956Z,995.48
2017-12-17T01:05:20.939Z,995.42
2017-12-17T01:06:20.911Z,995.33
2017-12-17T01:07:20.895Z,995.36
2017-12-17T01:08:20.865Z,995.30
2017-12-17T01:09:20.828Z,995.27
2017-12-17T01:10:20.809Z,995.49
2017-12-17T01:11:20.767Z,995.83
2017-12-17T01:12:20.753Z,996.51
2017-12-17T01:13:20.747Z,997.34
2017-12-17T01:14:20.701Z,997.80
2017-12-17T01:15:20.684Z,997.76
2017-12-17T01:16:20.664Z,997.69
2017-12-17T01:17:20.635Z,997.93
2017-12-17T01:18:20.607Z,997.87
2017-12-17T01:19:20.602Z,998.11
2017-12-17T01:20:20.556Z,998.11
2017-12-17T01:21:20.538Z,997.94
2017-12-17T01:22:20.535Z,997.91
2017-12-17T01:23:20.491Z,997.94
2017-12-17T01:24:20.490Z,998.30
2017-12-17T01:25:20.452Z,998.33
2017-12-17T01:26:20.429Z,998.37
2017-12-17T01:27:20.389Z,997.77
2017-12-17T01:28:20.379Z,997.76
2017-12-17T01:29:20.343Z,998.06
2017-12-17T01:30:20.341Z,998.81
2017-12-17T01:31:20.315Z,998.96
2017-12-17T01:32:20.269Z,998.81
2017-12-17T01:33:20.243Z,998.37
2017-12-17T01:34:20.220Z,998.06
2017-12-17T01:35:20.221Z,997.83
2017-12-17T01:36:20.166Z,997.79
2017-12-17T01:37:20.151Z,997.71
2017-12-17T01:38:20.126Z,997.88
2017-12-17T01:39:20.112Z,998.07
2017-12-17T01:40:20.086Z,997.97
2017-12-17T01:41:20.041Z,997.89
2017-12-17T01:42:20.017Z,997.79
2017-12-17T01:43:20.014Z,997.96
2017-12-17T01:44:19.981Z,998.12
2017-12-17T01:45:19.944Z,998.30
2017-12-17T01:46:19.920Z,998.31
2017-12-17T01:47:19.907Z,998.05
2017-12-17T01:48:19.866Z,998.18
2017-12-17T01:49:19.838Z,998.39
2017-12-17T01:50:19.816Z,998.41
2017-12-17T01:51:19.790Z,998.48
2017-12-17T01:52:19.764Z,998.69
2017-12-17T01:53:19.756Z,999.06
2017-12-17T01:54:19.706Z,999.42
2017-12-17T01:55:19.684Z,999.80
2017-12-17T01:56:19.670Z,999.78
2017-12-17T01:57:19.625Z,999.83
2017-12-17T01:58:19.607Z,999.74
2017-12-17T01:59:19.578Z,999.57
2017-12-17T02:00:19.570Z,999.47
2017-12-17T02:01:19.521Z,999.51
2017-12-17T02:02:19.499Z,999.48
2017-12-17T02:03:19.474Z,999.54
2017-12-17T02:04:19.447Z,999.65
2017-12-17T02:05:19.427Z,999.48
2017-12-17T02:06:19.403Z,999.51
2017-12-17T02:07:19.382Z,999.51
2017-12-17T02:08:19.339Z,999.47
2017-12-17T02:09:19.310Z,999.28
2017-12-17T02:10:19.287Z,999.11
2017-12-17T02:11:19.265Z,999.12
2017-12-17T02:12:19.235Z,999.26
2017-12-17T02:13:19.194Z,999.40
2017-12-17T02:14:19.198Z,999.53
2017-12-17T02:15:19.168Z,999.53
2017-12-17T02:16:19.144Z,999.56
2017-12-17T02:17:19.113Z,999.59
2017-12-17T02:18:19.082Z,999.67
2017-12-17T02:19:19.071Z,999.70
2017-12-17T02:20:19.039Z,999.69
2017-12-17T02:21:19.015Z,999.76
2017-12-17T02:22:18.976Z,999.78
2017-12-17T02:23:18.962Z,999.96
2017-12-17T02:24:18.911Z,1000.10
2017-12-17T02:25:18.888Z,1000.30
2017-12-17T02:26:18.873Z,1000.37
2017-12-17T02:27:18.844Z,1000.40
2017-12-17T02:28:18.815Z,1000.47
2017-12-17T02:29:18.771Z,1000.45
2017-12-17T02:30:18.752Z,1000.57
2017-12-17T02:31:18.727Z,1000.64
2017-12-17T02:32:18.705Z,1000.68
2017-12-17T02:33:19.213Z,1000.58
2017-12-17T02:34:18.653Z,1000.54
2017-12-17T02:35:18.613Z,1000.34
2017-12-17T02:36:18.597Z,1000.36
2017-12-17T02:37:18.577Z,1000.42
2017-12-17T02:38:18.548Z,1000.43
2017-12-17T02:39:18.514Z,1000.40
2017-12-17T02:40:18.496Z,1000.26
2017-12-17T02:41:18.454Z,1000.06
2017-12-17T02:42:18.445Z,999.73
2017-12-17T02:43:18.431Z,999.48
2017-12-17T02:44:18.391Z,999.29
2017-12-17T02:45:18.362Z,998.94
2017-12-17T02:46:18.353Z,998.64
2017-12-17T02:47:18.306Z,998.50
2017-12-17T02:48:18.283Z,998.24
2017-12-17T02:49:18.259Z,997.86
2017-12-17T02:50:18.219Z,997.65
2017-12-17T02:51:18.192Z,997.41
2017-12-17T02:52:18.185Z,997.43
2017-12-17T02:53:18.159Z,997.57
2017-12-17T02:54:18.123Z,997.70
2017-12-17T02:55:18.098Z,997.91
2017-12-17T02:56:18.065Z,998.05
2017-12-17T02:57:18.042Z,998.12
2017-12-17T02:58:18.024Z,998.17
2017-12-17T02:59:18.008Z,998.30
2017-12-17T03:00:17.967Z,998.54
2017-12-17T03:01:17.944Z,998.67
2017-12-17T03:02:17.905Z,998.51
2017-12-17T03:03:17.876Z,998.37
2017-12-17T03:04:17.854Z,998.28
2017-12-17T03:05:17.820Z,998.38
2017-12-17T03:06:17.802Z,998.54
2017-12-17T03:07:17.763Z,998.64
2017-12-17T03:08:17.749Z,998.68
2017-12-17T03:09:17.724Z,998.66
2017-12-17T03:10:17.691Z,998.86
2017-12-17T03:11:17.664Z,998.94
2017-12-17T03:12:17.650Z,998.94
2017-12-17T03:13:17.605Z,998.57
2017-12-17T03:14:17.596Z,998.15
2017-12-17T03:15:17.555Z,997.97
2017-12-17T03:16:17.543Z,997.88
2017-12-17T03:17:17.497Z,997.89
2017-12-17T03:18:17.469Z,997.88
2017-12-17T03:19:17.448Z,997.97
2017-12-17T03:20:17.414Z,998.01
2017-12-17T03:21:17.413Z,998.10
2017-12-17T03:22:17.384Z,998.11
2017-12-17T03:23:17.366Z,997.94
2017-12-17T03:24:17.319Z,997.86
2017-12-17T03:25:17.290Z,997.89
2017-12-17T03:26:17.256Z,997.63
2017-12-17T03:27:17.244Z,997.57
2017-12-17T03:28:17.207Z,997.49
2017-12-17T03:29:17.185Z,997.52
2017-12-17T03:30:17.174Z,997.51
2017-12-17T03:31:17.130Z,997.62
2017-12-17T03:32:17.105Z,997.56
2017-12-17T03:33:17.086Z,997.58
2017-12-17T03:34:17.040Z,997.88
2017-12-17T03:35:17.029Z,998.07
2017-12-17T03:36:16.995Z,998.20
2017-12-17T03:37:16.964Z,998.22
2017-12-17T03:38:16.949Z,998.48
2017-12-17T03:39:16.933Z,998.44
2017-12-17T03:40:16.886Z,998.57
2017-12-17T03:41:16.854Z,998.81
2017-12-17T03:42:16.814Z,998.84
2017-12-17T03:43:16.824Z,998.87
2017-12-17T03:44:16.793Z,998.89
2017-12-17T03:45:16.771Z,998.93
2017-12-17T03:46:16.727Z,999.05
2017-12-17T03:47:16.714Z,999.00
2017-12-17T03:48:16.673Z,998.96
2017-12-17T03:49:16.637Z,999.02
2017-12-17T03:50:16.613Z,998.94
2017-12-17T03:51:16.581Z,998.98
2017-12-17T03:52:16.566Z,998.96
2017-12-17T03:53:16.528Z,998.93
2017-12-17T03:54:16.511Z,998.98
2017-12-17T03:55:16.492Z,998.84
2017-12-17T03:56:16.466Z,998.59
2017-12-17T03:57:16.430Z,998.63
2017-12-17T03:58:16.397Z,998.77
2017-12-17T03:59:16.375Z,998.86
2017-12-17T04:00:16.338Z,998.79
2017-12-17T04:01:16.311Z,998.81
2017-12-17T04:02:16.297Z,998.96
2017-12-17T04:03:16.281Z,999.10
2017-12-17T04:04:16.237Z,999.16
2017-12-17T04:05:16.228Z,999.19
2017-12-17T04:06:16.197Z,999.18
2017-12-17T04:07:16.159Z,999.24
2017-12-17T04:08:16.137Z,999.32
2017-12-17T04:09:16.092Z,999.42
2017-12-17T04:10:16.076Z,999.56
2017-12-17T04:11:16.048Z,999.66
2017-12-17T04:12:16.018Z,999.75
2017-12-17T04:13:16.956Z,1000.00
2017-12-17T04:14:15.974Z,1000.23
2017-12-17T04:15:15.955Z,1000.52
2017-12-17T04:16:15.906Z,1000.56
2017-12-17T04:17:15.888Z,1000.73
2017-12-17T04:18:15.874Z,1000.73
2017-12-17T04:19:15.847Z,1000.77
2017-12-17T04:20:15.813Z,1000.93
2017-12-17T04:21:15.791Z,1000.95
2017-12-17T04:22:15.755Z,1000.97
2017-12-17T04:23:15.744Z,1001.01
2017-12-17T04:24:15.696Z,1001.11
2017-12-17T04:25:15.665Z,1001.15
2017-12-17T04:26:15.666Z,1001.23
2017-12-17T04:27:15.637Z,1001.34
2017-12-17T04:28:15.589Z,1001.38
2017-12-17T04:29:15.564Z,1001.39
2017-12-17T04:30:15.537Z,1001.36
2017-12-17T04:31:15.522Z,1001.36
2017-12-17T04:32:15.492Z,1001.41
2017-12-17T04:33:15.471Z,1001.35
2017-12-17T04:34:15.421Z,1001.34
2017-12-17T04:35:15.409Z,1001.39
2017-12-17T04:36:15.372Z,1001.39
2017-12-17T04:37:15.349Z,1001.42
2017-12-17T04:38:15.328Z,1001.47
2017-12-17T04:39:15.309Z,1001.51
2017-12-17T04:40:15.282Z,1001.55
2017-12-17T04:41:15.263Z,1001.54
2017-12-17T04:42:15.219Z,1001.50
2017-12-17T04:43:15.189Z,1001.52
2017-12-17T04:44:15.182Z,1001.50
2017-12-17T04:45:15.131Z,1001.51
2017-12-17T04:46:15.125Z,1001.52
2017-12-17T04:47:15.079Z,1001.56
2017-12-17T04:48:15.055Z,1001.53
2017-12-17T04:49:15.029Z,1001.46
2017-12-17T04:50:14.993Z,1001.24
2017-12-17T04:51:14.992Z,1001.08
2017-12-17T04:52:14.948Z,1001.03
2017-12-17T04:53:14.910Z,1001.04
2017-12-17T04:54:14.896Z,1000.97
2017-12-17T04:55:14.870Z,1000.91
2017-12-17T04:56:14.847Z,1000.88
2017-12-17T04:57:14.813Z,1000.90
2017-12-17T04:58:14.786Z,1000.97
2017-12-17T04:59:14.769Z,1001.04
2017-12-17T05:00:14.751Z,1001.11
2017-12-17T05:01:14.709Z,1001.07
2017-12-17T05:02:14.691Z,1000.97
2017-12-17T05:03:14.654Z,1001.01
2017-12-17T05:04:14.631Z,1001.02
2017-12-17T05:05:14.599Z,1001.03
2017-12-17T05:06:14.571Z,1001.01
2017-12-17T05:07:14.553Z,1001.01
2017-12-17T05:08:14.537Z,1001.04
2017-12-17T05:09:14.496Z,1001.09
2017-12-17T05:10:14.477Z,1001.09
2017-12-17T05:11:14.461Z,1001.13
2017-12-17T05:12:14.430Z,1001.07
2017-12-17T05:13:14.408Z,1001.04
2017-12-17T05:14:14.378Z,1001.00
2017-12-17T05:15:14.325Z,1000.88
2017-12-17T05:16:14.315Z,1000.75
2017-12-17T05:17:14.271Z,1000.67
2017-12-17T05:18:14.976Z,1000.67
2017-12-17T05:19:14.214Z,1000.63
2017-12-17T05:20:14.215Z,1000.63
2017-12-17T05:21:14.173Z,1000.63
2017-12-17T05:22:14.161Z,1000.55
2017-12-17T05:23:14.122Z,1000.40
2017-12-17T05:24:14.089Z,1000.41
2017-12-17T05:25:14.064Z,1000.37
2017-12-17T05:26:14.058Z,1000.35
2017-12-17T05:27:14.012Z,1000.30
2017-12-17T05:28:13.991Z,1000.27
2017-12-17T05:29:13.967Z,1000.23
2017-12-17T05:30:13.935Z,1000.24
2017-12-17T05:31:13.925Z,1000.31
2017-12-17T05:32:13.900Z,1000.37
2017-12-17T05:33:13.847Z,1000.36
2017-12-17T05:34:13.848Z,1000.34
2017-12-17T05:35:13.823Z,1000.36
2017-12-17T05:36:13.787Z,1000.39
2017-12-17T05:37:13.765Z,1000.41
2017-12-17T05:38:13.724Z,1000.34
2017-12-17T05:39:13.701Z,1000.30
2017-12-17T05:40:13.670Z,1000.18
2017-12-17T05:41:13.663Z,1000.17
2017-12-17T05:42:13.617Z,1000.15
2017-12-17T05:43:13.587Z,1000.23
2017-12-17T05:44:13.564Z,1000.18
2017-12-17T05:45:13.540Z,1000.11
2017-12-17T05:46:13.497Z,1000.05
2017-12-17T05:47:13.504Z,1000.04
2017-12-17T05:48:13.455Z,1000.03
2017-12-17T05:49:13.424Z,1000.03
2017-12-17T05:50:13.416Z,1000.06
2017-12-17T05:51:13.400Z,1000.11
2017-12-17T05:52:13.355Z,1000.07
2017-12-17T05:53:13.345Z,999.94
2017-12-17T05:54:13.303Z,999.76
2017-12-17T05:55:13.275Z,999.61
2017-12-17T05:56:13.247Z,999.49
2017-12-17T05:57:13.213Z,999.37
2017-12-17T05:58:13.209Z,999.32
2017-12-17T05:59:13.165Z,999.22
2017-12-17T06:00:13.140Z,999.15
2017-12-17T06:01:13.107Z,999.18
2017-12-17T06:02:13.090Z,999.13
2017-12-17T06:03:13.065Z,999.01
2017-12-17T06:04:13.027Z,998.80
2017-12-17T06:05:13.005Z,998.44
2017-12-17T06:06:12.977Z,997.93
2017-12-17T06:07:12.953Z,997.52
2017-12-17T06:08:12.936Z,997.22
2017-12-17T06:09:12.908Z,996.89
2017-12-17T06:10:13.482Z,996.36
2017-12-17T06:11:12.849Z,995.94
2017-12-17T06:12:12.824Z,995.75
2017-12-17T06:13:12.804Z,995.65
2017-12-17T06:14:12.793Z,995.54
2017-12-17T06:15:12.753Z,995.70
2017-12-17T06:16:12.726Z,996.09
2017-12-17T06:17:12.698Z,996.61
2017-12-17T06:18:12.673Z,997.08
2017-12-17T06:19:12.642Z,997.29
2017-12-17T06:20:12.607Z,997.48
2017-12-17T06:21:12.593Z,997.82
2017-12-17T06:22:12.565Z,997.88
2017-12-17T06:23:12.537Z,997.88
2017-12-17T06:24:12.515Z,997.97
2017-12-17T06:25:12.485Z,998.38
2017-12-17T06:26:12.466Z,998.74
2017-12-17T06:27:12.428Z,999.18
2017-12-17T06:28:12.397Z,999.68
2017-12-17T06:29:12.381Z,1000.08
2017-12-17T06:30:12.372Z,1000.25
2017-12-17T06:31:12.314Z,1000.24
2017-12-17T06:32:12.300Z,1000.35
2017-12-17T06:33:12.277Z,1000.55
2017-12-17T06:34:12.252Z,1000.68
2017-12-17T06:35:12.215Z,1000.60
2017-12-17T06:36:12.198Z,1000.53
2017-12-17T06:37:12.173Z,1000.65
2017-12-17T06:38:12.146Z,1000.87
2017-12-17T06:39:12.117Z,1000.97
2017-12-17T06:40:12.981Z,1000.96
2017-12-17T06:41:12.067Z,1000.87
2017-12-17T06:42:12.041Z,1000.88
2017-12-17T06:43:12.017Z,1000.95
2017-12-17T06:44:11.988Z,1001.00
2017-12-17T06:45:11.948Z,1001.13
2017-12-17T06:46:11.934Z,1001.00
2017-12-17T06:47:11.908Z,1000.73
2017-12-17T06:48:12.488Z,1000.76
2017-12-17T06:49:11.862Z,1000.87
2017-12-17T06:50:11.823Z,1000.55
2017-12-17T06:51:11.801Z,1000.23
2017-12-17T06:52:11.773Z,1000.18
2017-12-17T06:53:11.740Z,1000.17
2017-12-17T06:54:11.727Z,1000.18
2017-12-17T06:55:11.695Z,1000.20
2017-12-17T06:56:12.488Z,999.87
2017-12-17T06:57:11.647Z,999.45
2017-12-17T06:58:11.617Z,999.14
2017-12-17T06:59:11.594Z,999.02
2017-12-17T07:00:11.566Z,999.14
2017-12-17T07:01:11.528Z,999.24
2017-12-17T07:02:11.495Z,999.44
2017-12-17T07:03:11.490Z,999.40
2017-12-17T07:04:11.462Z,999.32
2017-12-17T07:05:11.435Z,999.32
2017-12-17T07:06:11.402Z,999.42
2017-12-17T07:07:11.379Z,999.65
2017-12-17T07:08:11.342Z,999.88
2017-12-17T07:09:11.337Z,999.93
2017-12-17T07:10:11.285Z,999.83
2017-12-17T07:11:11.278Z,999.51
2017-12-17T07:12:11.248Z,999.18
2017-12-17T07:13:11.222Z,999.16
2017-12-17T07:14:11.188Z,999.19
2017-12-17T07:15:11.164Z,999.31
2017-12-17T07:16:11.147Z,999.62
2017-12-17T07:17:11.114Z,999.72
2017-12-17T07:18:11.085Z,999.66
2017-12-17T07:19:11.069Z,999.66
2017-12-17T07:20:11.044Z,999.77
2017-12-17T07:21:11.017Z,999.99
2017-12-17T07:22:10.988Z,1000.23
2017-12-17T07:23:10.955Z,1000.45
2017-12-17T07:24:10.937Z,1000.50
2017-12-17T07:25:10.902Z,1000.53
2017-12-17T07:26:10.887Z,1000.55
2017-12-17T07:27:10.853Z,1000.55
2017-12-17T07:28:10.826Z,1000.47
2017-12-17T07:29:10.802Z,1000.49
2017-12-17T07:30:10.771Z,1000.52
2017-12-17T07:31:10.752Z,1000.44
2017-12-17T07:32:11.498Z,1000.33
2017-12-17T07:33:10.689Z,1000.24
2017-12-17T07:34:10.659Z,1000.27
2017-12-17T07:35:10.641Z,1000.37
2017-12-17T07:36:10.615Z,1000.31
2017-12-17T07:37:10.584Z,1000.22
2017-12-17T07:38:10.573Z,1000.27
2017-12-17T07:39:10.538Z,1000.33
2017-12-17T07:40:10.514Z,1000.38
2017-12-17T07:41:10.474Z,1000.36
2017-12-17T07:42:10.459Z,1000.37
2017-12-17T07:43:10.456Z,1000.34
2017-12-17T07:44:10.411Z,1000.46
2017-12-17T07:45:10.383Z,1000.64
2017-12-17T07:46:10.360Z,1000.72
2017-12-17T07:47:10.328Z,1000.71
2017-12-17T07:48:10.301Z,1000.66
2017-12-17T07:49:10.258Z,1000.76
2017-12-17T07:50:10.244Z,1000.85
2017-12-17T07:51:10.243Z,1000.87
2017-12-17T07:52:10.205Z,1000.80
2017-12-17T07:53:10.181Z,1000.91
2017-12-17T07:54:10.144Z,1000.95
2017-12-17T07:55:10.113Z,1000.87
2017-12-17T07:56:10.093Z,1000.79
2017-12-17T07:57:10.062Z,1000.77
2017-12-17T07:58:10.030Z,1000.82
2017-12-17T07:59:10.007Z,1000.78
2017-12-17T08:00:09.978Z,1000.85
2017-12-17T08:01:09.965Z,1000.97
2017-12-17T08:02:09.926Z,1001.02
2017-12-17T08:03:09.900Z,1000.99
2017-12-17T08:04:09.873Z,1000.98
2017-12-17T08:05:09.849Z,1001.00
2017-12-17T08:06:09.829Z,1001.13
2017-12-17T08:07:09.796Z,1001.20
2017-12-17T08:08:09.757Z,1001.25
2017-12-17T08:09:09.741Z,1001.27
2017-12-17T08:10:09.719Z,1001.42
2017-12-17T08:11:09.702Z,1001.45
2017-12-17T08:12:10.511Z,1001.51
2017-12-17T08:13:09.629Z,1001.47
2017-12-17T08:14:09.631Z,1001.48
2017-12-17T08:15:09.596Z,1001.63
2017-12-17T08:16:09.562Z,1001.71
2017-12-17T08:17:09.550Z,1001.76
2017-12-17T08:18:09.497Z,1001.90
2017-12-17T08:19:09.468Z,1001.82
2017-12-17T08:20:09.471Z,1002.08
2017-12-17T08:21:09.417Z,1002.04
2017-12-17T08:22:09.402Z,1002.14
2017-12-17T08:23:09.362Z,1002.11
2017-12-17T08:24:09.347Z,1002.18
2017-12-17T08:25:09.310Z,1002.39
2017-12-17T08:26:09.291Z,1002.37
2017-12-17T08:27:09.281Z,1002.35
2017-12-17T08:28:09.247Z,1002.36
2017-12-17T08:29:09.224Z,1002.61
2017-12-17T08:30:09.185Z,1002.71
2017-12-17T08:31:09.155Z,1002.71
2017-12-17T08:32:10.013Z,1002.91
2017-12-17T08:33:09.099Z,1003.08
2017-12-17T08:34:09.085Z,1003.04
2017-12-17T08:35:09.065Z,1003.18
2017-12-17T08:36:09.030Z,1003.19
2017-12-17T08:37:09.002Z,1003.17
2017-12-17T08:38:08.962Z,1003.41
2017-12-17T08:39:08.942Z,1003.36
2017-12-17T08:40:09.509Z,1003.49
2017-12-17T08:41:08.884Z,1003.52
2017-12-17T08:42:08.876Z,1003.54
2017-12-17T08:43:08.843Z,1003.59
2017-12-17T08:44:08.808Z,1003.79
2017-12-17T08:45:08.792Z,1003.84
2017-12-17T08:46:08.756Z,1004.03
2017-12-17T08:47:08.737Z,1004.15
2017-12-17T08:48:08.709Z,1004.11
2017-12-17T08:49:08.684Z,1004.12
2017-12-17T08:50:08.652Z,1004.14
2017-12-17T08:51:08.610Z,1004.26
2017-12-17T08:52:08.582Z,1004.38
2017-12-17T08:53:08.563Z,1004.39
2017-12-17T08:54:08.541Z,1004.35
2017-12-17T08:55:08.496Z,1004.49
2017-12-17T08:56:08.473Z,1004.42
2017-12-17T08:57:08.447Z,1004.31
2017-12-17T08:58:08.422Z,1004.48
2017-12-17T08:59:08.408Z,1004.62
2017-12-17T09:00:08.380Z,1004.61
2017-12-17T09:01:08.327Z,1004.57
2017-12-17T09:02:08.308Z,1004.67
2017-12-17T09:03:08.279Z,1004.78
2017-12-17T09:04:08.269Z,1004.71
2017-12-17T09:05:08.226Z,1004.72
2017-12-17T09:06:08.197Z,1004.69
2017-12-17T09:07:08.186Z,1004.63
2017-12-17T09:08:08.135Z,1004.64
2017-12-17T09:09:08.141Z,1004.61
2017-12-17T09:10:08.089Z,1004.69
2017-12-17T09:11:08.059Z,1004.60
2017-12-17T09:12:08.039Z,1004.61
2017-12-17T09:13:07.988Z,1004.63
2017-12-17T09:14:07.975Z,1004.60
2017-12-17T09:15:07.967Z,1004.65
2017-12-17T09:16:07.924Z,1004.70
2017-12-17T09:17:07.899Z,1004.79
2017-12-17T09:18:07.867Z,1004.87
2017-12-17T09:19:07.835Z,1004.86
2017-12-17T09:20:07.820Z,1004.88
2017-12-17T09:21:07.786Z,1004.71
2017-12-17T09:22:07.751Z,1004.73
2017-12-17T09:23:07.724Z,1004.70
2017-12-17T09:24:07.690Z,1004.65
2017-12-17T09:25:07.660Z,1004.68
2017-12-17T09:26:07.645Z,1004.72
2017-12-17T09:27:07.611Z,1004.73
2017-12-17T09:28:07.585Z,1004.72
2017-12-17T09:29:07.573Z,1004.78
2017-12-17T09:30:07.532Z,1004.75
2017-12-17T09:31:07.525Z,1004.88
2017-12-17T09:32:07.470Z,1004.84
2017-12-17T09:33:07.441Z,1004.79
2017-12-17T09:34:07.493Z,1004.86
2017-12-17T09:35:07.399Z,1004.93
2017-12-17T09:36:07.352Z,1004.88
2017-12-17T09:37:07.327Z,1004.91
2017-12-17T09:38:07.310Z,1004.95
2017-12-17T09:39:07.272Z,1004.95
2017-12-17T09:40:07.257Z,1004.98
2017-12-17T09:41:07.236Z,1004.95
2017-12-17T09:42:07.209Z,1004.97
2017-12-17T09:43:07.184Z,1005.04
2017-12-17T09:44:07.142Z,1005.17
2017-12-17T09:45:07.114Z,1005.24
2017-12-17T09:46:07.087Z,1005.27
2017-12-17T09:47:07.044Z,1005.22
2017-12-17T09:48:07.029Z,1005.23
2017-12-17T09:49:07.005Z,1005.41
2017-12-17T09:50:06.992Z,1005.28
2017-12-17T09:51:06.932Z,1005.35
2017-12-17T09:52:07.539Z,1005.35
2017-12-17T09:53:06.893Z,1005.30
2017-12-17T09:54:06.877Z,1005.38
2017-12-17T09:55:06.832Z,1005.40
2017-12-17T09:56:06.822Z,1005.41
2017-12-17T09:57:06.775Z,1005.44
2017-12-17T09:58:06.768Z,1005.44
2017-12-17T09:59:06.729Z,1005.48
2017-12-17T10:00:06.682Z,1005.56
2017-12-17T10:01:06.674Z,1005.53
2017-12-17T10:02:06.654Z,1005.50
2017-12-17T10:03:06.611Z,1005.52
2017-12-17T10:04:06.575Z,1005.59
2017-12-17T10:05:06.572Z,1005.62
2017-12-17T10:06:06.550Z,1005.58
2017-12-17T10:07:06.496Z,1005.60
2017-12-17T10:08:06.481Z,1005.60
2017-12-17T10:09:07.033Z,1005.59
2017-12-17T10:10:06.414Z,1005.55
2017-12-17T10:11:06.415Z,1005.64
2017-12-17T10:12:06.359Z,1005.48
2017-12-17T10:13:06.375Z,1005.51
2017-12-17T10:14:06.322Z,1005.53
2017-12-17T10:15:06.274Z,1005.50
2017-12-17T10:16:06.256Z,1005.50
2017-12-17T10:17:06.231Z,1005.56
2017-12-17T10:18:06.187Z,1005.53
2017-12-17T10:19:06.171Z,1005.49
2017-12-17T10:20:06.146Z,1005.46
2017-12-17T10:21:06.139Z,1005.45
2017-12-17T10:22:06.093Z,1005.52
2017-12-17T10:23:06.061Z,1005.70
2017-12-17T10:24:06.023Z,1005.91
2017-12-17T10:25:05.991Z,1006.00
2017-12-17T10:26:05.982Z,1006.03
2017-12-17T10:27:05.972Z,1005.99
2017-12-17T10:28:05.925Z,1006.02
2017-12-17T10:29:05.906Z,1006.04
2017-12-17T10:30:05.884Z,1006.06
2017-12-17T10:31:05.840Z,1006.03
2017-12-17T10:32:05.812Z,1006.21
2017-12-17T10:33:05.790Z,1006.29
2017-12-17T10:34:05.756Z,1006.32
2017-12-17T10:35:05.736Z,1006.37
2017-12-17T10:36:05.723Z,1006.32
2017-12-17T10:37:05.676Z,1006.41
2017-12-17T10:38:05.652Z,1006.65
2017-12-17T10:39:06.542Z,1006.70
2017-12-17T10:40:05.603Z,1006.71
2017-12-17T10:41:05.576Z,1006.82
2017-12-17T10:42:05.549Z,1006.84
2017-12-17T10:43:05.519Z,1006.93
2017-12-17T10:44:05.488Z,1007.10
2017-12-17T10:45:05.469Z,1007.12
2017-12-17T10:46:05.451Z,1007.28
2017-12-17T10:47:05.415Z,1007.31
2017-12-17T10:48:05.395Z,1007.32
2017-12-17T10:49:05.344Z,1007.42
2017-12-17T10:50:05.343Z,1007.44
2017-12-17T10:51:05.298Z,1007.52
2017-12-17T10:52:05.272Z,1007.50
2017-12-17T10:53:05.259Z,1007.56
2017-12-17T10:54:05.202Z,1007.49
2017-12-17T10:55:05.188Z,1007.67
2017-12-17T10:56:05.149Z,1007.86
2017-12-17T10:57:05.131Z,1007.72
2017-12-17T10:58:05.123Z,1007.84
2017-12-17T10:59:05.074Z,1007.96
2017-12-17T11:00:05.051Z,1007.94
2017-12-17T11:01:05.013Z,1008.06
2017-12-17T11:02:04.998Z,1008.01
2017-12-17T11:03:04.967Z,1008.00
2017-12-17T11:04:04.962Z,1008.09
2017-12-17T11:05:04.911Z,1008.03
2017-12-17T11:06:04.900Z,1008.10
2017-12-17T11:07:04.856Z,1008.10
2017-12-17T11:08:04.834Z,1008.10
2017-12-17T11:09:04.818Z,1008.10
2017-12-17T11:10:04.784Z,1008.21
2017-12-17T11:11:04.758Z,1008.32
2017-12-17T11:12:04.739Z,1008.32
2017-12-17T11:13:04.689Z,1008.35
2017-12-17T11:14:04.680Z,1008.31
2017-12-17T11:15:04.628Z,1008.37
2017-12-17T11:16:04.619Z,1008.52
2017-12-17T11:17:04.597Z,1008.55
2017-12-17T11:18:04.557Z,1008.79
2017-12-17T11:19:04.524Z,1008.72
2017-12-17T11:20:04.496Z,1008.85
2017-12-17T11:21:04.469Z,1008.80
2017-12-17T11:22:04.448Z,1008.82
2017-12-17T11:23:04.417Z,1008.86
2017-12-17T11:24:04.391Z,1008.92
2017-12-17T11:25:04.384Z,1008.85
2017-12-17T11:26:04.342Z,1008.93
2017-12-17T11:27:04.313Z,1009.00
2017-12-17T11:28:04.303Z,1009.00
2017-12-17T11:29:04.273Z,1009.06
2017-12-17T11:30:04.225Z,1009.16
2017-12-17T11:31:04.206Z,1009.14
2017-12-17T11:32:04.180Z,1009.05
2017-12-17T11:33:04.147Z,1009.05
2017-12-17T11:34:04.137Z,1009.21
2017-12-17T11:35:04.082Z,1009.18
2017-12-17T11:36:04.063Z,1009.27
2017-12-17T11:37:04.057Z,1009.27
2017-12-17T11:38:04.024Z,1009.26
2017-12-17T11:39:03.986Z,1009.23
2017-12-17T11:40:03.954Z,1009.40
2017-12-17T11:41:03.929Z,1009.25
2017-12-17T11:42:03.912Z,1009.36
2017-12-17T11:43:03.875Z,1009.43
2017-12-17T11:44:03.864Z,1009.46
2017-12-17T11:45:03.815Z,1009.43
2017-12-17T11:46:03.795Z,1009.42
2017-12-17T11:47:03.775Z,1009.44
2017-12-17T11:48:03.739Z,1009.59
2017-12-17T11:49:03.725Z,1009.72
2017-12-17T11:50:03.694Z,1009.63
2017-12-17T11:51:03.672Z,1009.70
2017-12-17T11:52:03.641Z,1009.67
2017-12-17T11:53:03.603Z,1009.63
2017-12-17T11:54:03.587Z,1009.72
2017-12-17T11:55:03.565Z,1009.70
2017-12-17T11:56:03.577Z,1009.68
2017-12-17T11:57:03.499Z,1009.57
2017-12-17T11:58:03.476Z,1009.85
2017-12-17T11:59:03.424Z,1009.72
2017-12-17T12:00:03.403Z,1009.91
2017-12-17T12:01:03.380Z,1009.84
2017-12-17T12:02:03.342Z,1009.99
2017-12-17T12:03:03.325Z,1009.95
2017-12-17T12:04:03.304Z,1010.02
2017-12-17T12:05:03.287Z,1010.13
2017-12-17T12:06:03.237Z,1010.33
2017-12-17T12:07:03.220Z,1010.23
2017-12-17T12:08:03.183Z,1010.19
2017-12-17T12:09:03.151Z,1010.18
2017-12-17T12:10:03.134Z,1010.25
2017-12-17T12:11:03.097Z,1010.16
2017-12-17T12:12:03.089Z,1010.34
2017-12-17T12:13:03.036Z,1010.38
2017-12-17T12:14:03.038Z,1010.38